createdAt,value
2019-04-14T00:02:40.452Z,20.50
2019-04-14T00:05:14.631Z,20.03
2019-04-14T00:07:44.844Z,19.13
2019-04-14T00:10:14.648Z,20.27
2019-04-14T00:12:44.775Z,20.23
2019-04-14T00:15:25.957Z,19.80
2019-04-14T00:17:45.686Z,21.20
2019-04-14T00:20:14.700Z,20.27
2019-04-14T00:22:44.614Z,20.53
2019-04-14T00:25:15.089Z,20.70
2019-04-14T00:27:45.265Z,20.03
2019-04-14T00:30:16.568Z,20.53
2019-04-14T00:32:59.608Z,20.90
2019-04-14T00:35:36.318Z,20.60
2019-04-14T00:38:24.320Z,22.13
2019-04-14T00:41:12.319Z,20.03
2019-04-14T00:44:10.008Z,22.40
2019-04-14T00:46:58.368Z,21.43
2019-04-14T00:49:28.903Z,20.97
2019-04-14T00:51:59.223Z,22.07
2019-04-14T00:54:28.394Z,21.77
2019-04-14T00:56:58.481Z,22.20
2019-04-14T00:59:27.608Z,23.43
2019-04-14T01:01:56.956Z,22.47
2019-04-14T01:04:27.244Z,22.40
2019-04-14T01:06:57.581Z,22.63
2019-04-14T01:09:26.795Z,22.00
2019-04-14T01:11:55.835Z,20.63
2019-04-14T01:14:25.549Z,22.23
2019-04-14T01:16:55.795Z,22.77
2019-04-14T01:19:24.935Z,21.43
2019-04-14T01:21:54.579Z,20.97
2019-04-14T01:24:24.904Z,21.97
2019-04-14T01:26:55.033Z,22.40
2019-04-14T01:29:25.430Z,21.60
2019-04-14T01:31:55.702Z,22.43
2019-04-14T01:34:25.899Z,21.90
2019-04-14T01:36:56.114Z,21.77
2019-04-14T01:39:26.436Z,22.87
2019-04-14T01:41:56.442Z,21.53
2019-04-14T01:44:26.424Z,21.37
2019-04-14T01:46:56.505Z,21.27
2019-04-14T01:49:26.811Z,21.93
2019-04-14T01:52:14.570Z,23.10
2019-04-14T01:55:02.876Z,20.47
2019-04-14T01:57:48.284Z,22.83
2019-04-14T02:00:40.270Z,21.87
2019-04-14T02:03:10.574Z,23.60
2019-04-14T02:05:40.688Z,23.33
2019-04-14T02:08:11.107Z,22.03
2019-04-14T02:10:41.248Z,23.60
2019-04-14T02:13:11.445Z,23.43
2019-04-14T02:15:41.819Z,22.30
2019-04-14T02:18:12.123Z,21.43
2019-04-14T02:20:42.484Z,22.17
2019-04-14T02:23:12.557Z,22.50
2019-04-14T02:25:42.884Z,22.63
2019-04-14T02:28:13.323Z,22.60
2019-04-14T02:30:55.163Z,24.23
2019-04-14T02:33:46.903Z,23.80
2019-04-14T02:36:27.529Z,21.23
2019-04-14T02:38:49.071Z,21.07
2019-04-14T02:46:12.202Z,21.73
2019-04-14T02:48:55.376Z,22.33
2019-04-14T02:51:21.269Z,21.30
2019-04-14T02:53:54.122Z,21.30
2019-04-14T02:56:29.224Z,21.73
2019-04-14T02:58:56.999Z,21.13
2019-04-14T03:06:18.442Z,22.13
2019-04-14T03:09:04.686Z,21.10
2019-04-14T03:11:25.866Z,20.70
2019-04-14T03:13:51.393Z,20.27
2019-04-14T03:16:32.994Z,21.50
2019-04-14T03:18:59.789Z,21.80
2019-04-14T03:21:55.107Z,22.03
2019-04-14T03:29:40.775Z,22.03
2019-04-14T03:32:23.181Z,21.57
2019-04-14T03:34:42.091Z,20.67
2019-04-14T03:39:40.593Z,21.90
2019-04-14T03:42:12.498Z,23.27
2019-04-14T03:44:44.899Z,22.07
2019-04-14T03:47:13.532Z,22.23
2019-04-14T03:50:17.503Z,22.00
2019-04-14T03:54:40.231Z,21.80
2019-04-14T03:56:55.700Z,22.53
2019-04-14T03:59:25.990Z,21.83
2019-04-14T04:01:56.455Z,21.40
2019-04-14T04:04:25.673Z,23.73
2019-04-14T04:06:55.347Z,22.67
2019-04-14T04:09:30.733Z,22.67
2019-04-14T04:12:00.573Z,22.83
2019-04-14T04:14:29.716Z,22.87
2019-04-14T04:17:18.912Z,22.17
2019-04-14T04:20:13.150Z,23.67
2019-04-14T04:23:00.841Z,22.10
2019-04-14T04:25:35.358Z,22.97
2019-04-14T04:28:38.707Z,22.50
2019-04-14T04:31:22.050Z,22.30
2019-04-14T04:34:04.011Z,22.60
2019-04-14T04:36:40.455Z,21.40
2019-04-14T04:39:17.002Z,22.90
2019-04-14T04:41:47.168Z,22.33
2019-04-14T04:44:16.326Z,23.17
2019-04-14T04:46:45.982Z,23.23
2019-04-14T04:49:20.474Z,22.70
2019-04-14T04:51:46.536Z,23.90
2019-04-14T04:54:16.750Z,23.43
2019-04-14T04:56:45.827Z,24.47
2019-04-14T04:59:14.963Z,25.53
2019-04-14T05:01:45.077Z,24.50
2019-04-14T05:04:15.420Z,24.67
2019-04-14T05:07:01.793Z,24.70
2019-04-14T05:09:49.075Z,24.20
2019-04-14T05:12:26.743Z,24.73
2019-04-14T05:15:05.361Z,25.10
2019-04-14T05:17:35.045Z,25.83
2019-04-14T05:20:05.221Z,26.63
2019-04-14T05:22:35.419Z,25.20
2019-04-14T05:25:05.669Z,25.77
2019-04-14T05:27:35.127Z,25.43
2019-04-14T05:30:04.720Z,27.27
2019-04-14T05:32:34.713Z,25.17
2019-04-14T05:35:05.128Z,25.33
2019-04-14T05:37:35.467Z,26.43
2019-04-14T05:40:05.878Z,24.67
2019-04-14T05:42:36.164Z,24.70
2019-04-14T05:45:06.607Z,26.40
2019-04-14T05:47:35.587Z,25.43
2019-04-14T05:50:05.176Z,26.50
2019-04-14T05:52:34.044Z,25.63
2019-04-14T05:55:03.037Z,24.90
2019-04-14T05:57:32.687Z,26.47
2019-04-14T06:00:01.898Z,24.93
2019-04-14T06:02:32.067Z,25.90
2019-04-14T06:05:01.600Z,25.00
2019-04-14T06:07:30.868Z,26.33
2019-04-14T06:10:05.924Z,24.57
2019-04-14T06:12:34.852Z,25.47
2019-04-14T06:15:04.215Z,25.23
2019-04-14T06:17:33.030Z,26.03
2019-04-14T06:20:01.872Z,25.60
2019-04-14T06:22:30.719Z,25.33
2019-04-14T06:24:59.635Z,26.77
2019-04-14T06:27:28.856Z,26.57
2019-04-14T06:30:04.135Z,26.53
2019-04-14T06:32:42.014Z,25.57
2019-04-14T06:35:18.157Z,26.07
2019-04-14T06:37:56.759Z,25.83
2019-04-14T06:40:26.799Z,26.30
2019-04-14T06:42:55.693Z,25.77
2019-04-14T06:45:24.689Z,24.77
2019-04-14T06:47:53.530Z,24.80
2019-04-14T06:50:22.665Z,24.27
2019-04-14T06:52:52.364Z,25.13
2019-04-14T06:55:21.323Z,26.13
2019-04-14T06:57:53.330Z,23.33
2019-04-14T07:00:22.670Z,22.47
2019-04-14T07:02:51.616Z,21.50
2019-04-14T07:05:20.662Z,22.13
2019-04-14T07:07:56.945Z,20.97
2019-04-14T07:10:20.207Z,20.77
2019-04-14T07:12:49.218Z,20.80
2019-04-14T07:15:18.180Z,19.83
2019-04-14T07:17:47.139Z,19.57
2019-04-14T07:20:16.095Z,18.23
2019-04-14T07:22:45.031Z,19.00
2019-04-14T07:25:14.312Z,19.83
2019-04-14T07:27:43.972Z,19.43
2019-04-14T07:30:29.212Z,18.77
2019-04-14T07:33:35.758Z,17.40
2019-04-14T07:36:30.470Z,35.50
2019-04-14T07:39:27.486Z,21.50
2019-04-14T07:42:08.981Z,19.03
2019-04-14T07:44:56.922Z,17.33
2019-04-14T07:47:34.039Z,17.83
2019-04-14T07:50:22.132Z,18.00
2019-04-14T07:53:00.813Z,18.00
2019-04-14T07:55:39.914Z,17.63
2019-04-14T07:58:46.580Z,17.67
2019-04-14T08:01:19.563Z,16.83
2019-04-14T08:04:06.202Z,15.60
2019-04-14T08:06:38.214Z,15.87
2019-04-14T08:09:07.052Z,17.37
2019-04-14T08:11:36.037Z,16.33
2019-04-14T08:14:05.490Z,16.63
2019-04-14T08:16:34.489Z,16.37
2019-04-14T08:19:03.711Z,16.10
2019-04-14T08:21:32.805Z,16.00
2019-04-14T08:24:01.721Z,15.93
2019-04-14T08:26:31.130Z,15.57
2019-04-14T08:29:00.098Z,16.03
2019-04-14T08:31:29.036Z,15.10
2019-04-14T08:33:58.173Z,15.73
2019-04-14T08:36:27.080Z,15.73
2019-04-14T08:38:55.941Z,15.87
2019-04-14T08:41:25.279Z,33.27
2019-04-14T08:44:01.262Z,16.07
2019-04-14T08:46:48.425Z,15.27
2019-04-14T08:49:24.466Z,15.97
2019-04-14T08:52:13.547Z,15.20
2019-04-14T08:55:00.879Z,15.73
2019-04-14T08:57:38.259Z,15.27
2019-04-14T09:00:12.163Z,15.50
2019-04-14T09:02:57.248Z,15.60
2019-04-14T09:05:48.249Z,15.17
2019-04-14T09:08:30.372Z,22.80
2019-04-14T09:11:01.384Z,14.97
2019-04-14T09:13:30.610Z,14.50
2019-04-14T09:15:59.693Z,14.17
2019-04-14T09:18:29.034Z,14.53
2019-04-14T09:20:58.084Z,14.40
2019-04-14T09:23:27.126Z,14.73
2019-04-14T09:25:56.213Z,15.27
2019-04-14T09:28:25.545Z,14.53
2019-04-14T09:30:54.731Z,14.77
2019-04-14T09:33:23.604Z,15.03
2019-04-14T09:35:52.608Z,15.10
2019-04-14T09:38:21.943Z,15.13
2019-04-14T09:40:51.145Z,15.73
2019-04-14T09:43:20.110Z,14.27
2019-04-14T09:45:49.119Z,14.07
2019-04-14T09:48:18.547Z,14.97
2019-04-14T09:50:48.006Z,14.87
2019-04-14T09:53:17.084Z,14.80
2019-04-14T09:55:46.168Z,13.70
2019-04-14T09:58:15.347Z,14.97
2019-04-14T10:00:44.336Z,14.33
2019-04-14T10:03:13.642Z,14.83
2019-04-14T10:05:42.499Z,13.77
2019-04-14T10:08:11.545Z,13.73
2019-04-14T10:10:40.625Z,13.83
2019-04-14T10:13:10.129Z,15.03
2019-04-14T10:15:39.127Z,14.70
2019-04-14T10:18:08.530Z,13.53
2019-04-14T10:20:37.408Z,13.90
2019-04-14T10:23:06.650Z,13.87
2019-04-14T10:25:35.614Z,13.93
2019-04-14T10:28:04.654Z,13.93
2019-04-14T10:30:33.578Z,23.20
2019-04-14T10:33:02.606Z,13.90
2019-04-14T10:35:34.703Z,12.87
2019-04-14T10:38:04.026Z,13.13
2019-04-14T10:40:33.327Z,12.53
2019-04-14T10:43:02.593Z,13.30
2019-04-14T10:45:32.186Z,13.33
2019-04-14T10:48:01.080Z,13.90
2019-04-14T10:50:31.262Z,13.60
2019-04-14T10:53:00.364Z,13.00
2019-04-14T10:55:29.377Z,13.17
2019-04-14T10:57:58.745Z,13.67
2019-04-14T11:00:27.838Z,13.10
2019-04-14T11:02:56.996Z,12.80
2019-04-14T11:05:28.004Z,12.70
2019-04-14T11:07:57.036Z,12.00
2019-04-14T11:10:26.187Z,12.90
2019-04-14T11:12:55.175Z,12.63
2019-04-14T11:15:24.127Z,13.23
2019-04-14T11:17:52.961Z,12.43
2019-04-14T11:20:21.938Z,13.10
2019-04-14T11:23:02.486Z,11.93
2019-04-14T11:25:21.412Z,12.33
2019-04-14T11:27:50.316Z,12.37
2019-04-14T11:30:21.250Z,12.10
2019-04-14T11:33:02.439Z,12.73
2019-04-14T11:35:35.724Z,12.67
2019-04-14T11:38:22.611Z,12.27
2019-04-14T11:40:53.824Z,10.37
2019-04-14T11:43:22.806Z,37.63
2019-04-14T11:45:52.259Z,11.20
2019-04-14T11:48:21.283Z,11.13
2019-04-14T11:50:50.372Z,11.13
2019-04-14T11:53:19.647Z,11.33
2019-04-14T11:55:48.727Z,11.37
2019-04-14T11:58:17.709Z,10.73
2019-04-14T12:01:05.700Z,11.23
2019-04-14T12:04:08.951Z,11.13
2019-04-14T12:07:02.982Z,10.73
2019-04-14T12:09:49.909Z,10.73
2019-04-14T12:12:18.850Z,16.37
2019-04-14T12:14:47.770Z,26.47
2019-04-14T12:17:16.681Z,10.73
2019-04-14T12:19:45.718Z,10.13
2019-04-14T12:22:14.635Z,11.30
2019-04-14T12:24:43.572Z,11.20
2019-04-14T12:27:12.611Z,10.30
2019-04-14T12:29:41.890Z,10.00
2019-04-14T12:32:10.928Z,10.20
2019-04-14T12:34:39.798Z,10.50
2019-04-14T12:37:08.733Z,10.27
2019-04-14T12:39:37.970Z,10.17
2019-04-14T12:42:26.268Z,9.73
2019-04-14T12:45:17.224Z,9.57
2019-04-14T12:47:58.670Z,27.60
2019-04-14T12:50:36.764Z,10.40
2019-04-14T12:53:06.235Z,10.23
2019-04-14T12:55:35.744Z,9.80
2019-04-14T12:58:06.175Z,9.63
2019-04-14T13:00:47.680Z,8.87
2019-04-14T13:03:16.598Z,10.30
2019-04-14T13:05:45.784Z,9.73
2019-04-14T13:08:14.830Z,9.50
2019-04-14T13:10:43.929Z,9.87
2019-04-14T13:13:12.853Z,9.00
2019-04-14T13:15:41.784Z,9.43
2019-04-14T13:18:10.983Z,9.40
2019-04-14T13:20:40.030Z,10.37
2019-04-14T13:23:09.015Z,11.13
2019-04-14T13:25:37.865Z,10.67
2019-04-14T13:28:07.145Z,10.07
2019-04-14T13:30:39.310Z,10.10
2019-04-14T13:33:08.323Z,9.70
2019-04-14T13:35:37.353Z,10.03
2019-04-14T13:38:06.674Z,9.87
2019-04-14T13:40:36.092Z,10.70
2019-04-14T13:43:05.204Z,10.57
2019-04-14T13:45:34.219Z,10.73
2019-04-14T13:48:03.172Z,11.77
2019-04-14T13:50:32.197Z,11.27
2019-04-14T13:53:01.142Z,10.60
2019-04-14T13:55:30.041Z,11.03
2019-04-14T13:57:59.001Z,10.67
2019-04-14T14:00:28.053Z,11.27
2019-04-14T14:02:58.401Z,11.30
2019-04-14T14:05:27.298Z,11.37
2019-04-14T14:07:56.210Z,11.77
2019-04-14T14:10:25.270Z,10.93
2019-04-14T14:13:12.047Z,11.40
2019-04-14T14:15:59.208Z,10.73
2019-04-14T14:18:41.372Z,11.10
2019-04-14T14:21:41.585Z,10.93
2019-04-14T14:24:25.905Z,10.93
2019-04-14T14:26:54.974Z,11.40
2019-04-14T14:29:24.211Z,10.10
2019-04-14T14:31:53.692Z,11.07
2019-04-14T14:34:22.653Z,11.07
2019-04-14T14:36:51.763Z,10.03
2019-04-14T14:39:21.431Z,9.97
2019-04-14T14:41:50.507Z,10.57
2019-04-14T14:44:20.915Z,10.33
2019-04-14T14:47:00.840Z,10.13
2019-04-14T14:49:57.061Z,10.57
2019-04-14T14:52:26.008Z,10.63
2019-04-14T14:54:54.999Z,10.37
2019-04-14T14:57:24.019Z,10.53
2019-04-14T14:59:53.274Z,10.80
2019-04-14T15:02:23.445Z,11.30
2019-04-14T15:04:52.725Z,9.50
2019-04-14T15:07:21.800Z,10.83
2019-04-14T15:09:50.815Z,10.70
2019-04-14T15:12:19.691Z,11.13
2019-04-14T15:14:49.601Z,10.90
2019-04-14T15:17:19.223Z,10.00
2019-04-14T15:19:48.451Z,10.87
2019-04-14T15:22:17.547Z,10.50
2019-04-14T15:24:46.542Z,10.60
2019-04-14T15:27:15.526Z,11.17
2019-04-14T15:29:44.439Z,10.33
2019-04-14T15:32:13.336Z,10.63
2019-04-14T15:34:42.362Z,10.67
2019-04-14T15:37:11.278Z,10.33
2019-04-14T15:39:40.210Z,10.17
2019-04-14T15:42:09.249Z,11.20
2019-04-14T15:44:38.236Z,10.60
2019-04-14T15:47:07.346Z,10.83
2019-04-14T15:49:36.317Z,11.07
2019-04-14T15:52:05.913Z,10.07
2019-04-14T15:54:35.017Z,10.00
2019-04-14T15:57:21.734Z,11.03
2019-04-14T16:00:09.630Z,9.67
2019-04-14T16:02:57.856Z,10.40
2019-04-14T16:05:41.296Z,10.03
2019-04-14T16:08:21.066Z,10.63
2019-04-14T16:11:18.297Z,10.50
2019-04-14T16:14:05.239Z,11.73
2019-04-14T16:16:52.434Z,10.67
2019-04-14T16:19:28.727Z,10.60
2019-04-14T16:21:57.672Z,10.43
2019-04-14T16:24:26.613Z,9.90
2019-04-14T16:27:02.900Z,11.83
2019-04-14T16:29:50.706Z,11.20
2019-04-14T16:32:37.136Z,20.83
2019-04-14T16:35:13.555Z,12.33
2019-04-14T16:37:42.787Z,13.97
2019-04-14T16:40:11.940Z,10.47
2019-04-14T16:42:41.114Z,10.10
2019-04-14T16:45:13.612Z,10.50
2019-04-14T16:47:42.625Z,11.13
2019-04-14T16:50:11.790Z,10.87
2019-04-14T16:52:55.019Z,11.17
2019-04-14T16:55:41.989Z,11.20
2019-04-14T16:58:20.391Z,10.67
2019-04-14T17:00:53.948Z,11.27
2019-04-14T17:03:23.143Z,11.10
2019-04-14T17:05:52.579Z,11.07
2019-04-14T17:08:21.737Z,10.53
2019-04-14T17:10:50.959Z,10.47
2019-04-14T17:13:20.054Z,9.70
2019-04-14T17:16:11.667Z,10.63
2019-04-14T17:18:48.362Z,10.63
2019-04-14T17:21:35.241Z,10.50
2019-04-14T17:24:22.153Z,11.70
2019-04-14T17:27:22.711Z,11.10
2019-04-14T17:29:59.190Z,10.37
2019-04-14T17:32:34.528Z,11.47
2019-04-14T17:35:29.771Z,10.50
2019-04-14T17:38:12.838Z,9.60
2019-04-14T17:41:00.952Z,10.57
2019-04-14T17:43:36.392Z,10.87
2019-04-14T17:46:23.136Z,11.27
2019-04-14T17:48:58.943Z,11.07
2019-04-14T17:51:34.699Z,10.17
2019-04-14T17:54:29.178Z,10.60
2019-04-14T17:57:27.859Z,12.13
2019-04-14T18:00:22.032Z,10.23
2019-04-14T18:03:00.378Z,10.50
2019-04-14T18:05:37.198Z,9.87
2019-04-14T18:08:12.731Z,9.67
2019-04-14T18:11:13.063Z,10.97
2019-04-14T18:13:59.444Z,9.30
2019-04-14T18:16:40.752Z,10.00
2019-04-14T18:19:18.712Z,10.03
2019-04-14T18:21:47.705Z,10.90
2019-04-14T18:24:16.845Z,10.37
2019-04-14T18:26:46.121Z,11.30
2019-04-14T18:29:43.514Z,10.87
2019-04-14T18:32:41.186Z,10.47
2019-04-14T18:35:18.107Z,10.90
2019-04-14T18:37:57.584Z,9.87
2019-04-14T18:40:45.989Z,11.20
2019-04-14T18:43:33.141Z,11.50
2019-04-14T18:46:08.097Z,10.90
2019-04-14T18:48:59.552Z,9.80
2019-04-14T18:51:39.671Z,11.43
2019-04-14T18:54:33.763Z,10.67
2019-04-14T18:57:10.170Z,9.97
2019-04-14T18:59:57.369Z,10.23
2019-04-14T19:02:26.342Z,10.37
2019-04-14T19:04:55.242Z,10.07
2019-04-14T19:07:24.245Z,10.17
2019-04-14T19:09:53.220Z,10.23
2019-04-14T19:12:50.100Z,10.70
2019-04-14T19:15:26.226Z,10.70
2019-04-14T19:18:14.168Z,10.00
2019-04-14T19:20:46.383Z,44.57
2019-04-14T19:23:15.320Z,11.33
2019-04-14T19:25:44.199Z,10.47
2019-04-14T19:28:13.038Z,11.33
2019-04-14T19:30:42.047Z,11.20
2019-04-14T19:33:10.957Z,11.60
2019-04-14T19:35:40.011Z,11.27
2019-04-14T19:38:08.867Z,11.20
2019-04-14T19:40:37.749Z,10.73
2019-04-14T19:43:06.649Z,10.73
2019-04-14T19:45:36.094Z,10.73
2019-04-14T19:48:05.089Z,10.93
2019-04-14T19:50:34.117Z,10.13
2019-04-14T19:53:03.052Z,11.50
2019-04-14T19:55:32.278Z,11.07
2019-04-14T19:58:01.849Z,10.23
2019-04-14T20:00:30.920Z,10.20
2019-04-14T20:02:59.936Z,10.40
2019-04-14T20:05:28.890Z,8.93
2019-04-14T20:07:58.166Z,9.83
2019-04-14T20:10:27.203Z,10.60
2019-04-14T20:12:56.145Z,10.13
2019-04-14T20:15:28.174Z,9.53
2019-04-14T20:18:10.441Z,9.07
2019-04-14T20:21:04.686Z,9.03
2019-04-14T20:23:38.547Z,9.80
2019-04-14T20:26:41.904Z,8.70
2019-04-14T20:29:23.603Z,9.20
2019-04-14T20:31:58.740Z,9.83
2019-04-14T20:34:27.726Z,9.00
2019-04-14T20:36:56.680Z,10.10
2019-04-14T20:39:26.413Z,9.17
2019-04-14T20:41:55.405Z,9.30
2019-04-14T20:44:24.298Z,9.33
2019-04-14T20:46:53.340Z,9.87
2019-04-14T20:49:22.270Z,9.80
2019-04-14T20:51:51.641Z,9.70
2019-04-14T20:54:20.570Z,8.93
2019-04-14T20:56:49.831Z,9.60
2019-04-14T20:59:18.995Z,10.20
2019-04-14T21:01:55.305Z,9.03
2019-04-14T21:04:38.167Z,10.00
2019-04-14T21:07:41.599Z,9.10
2019-04-14T21:10:37.417Z,9.10
2019-04-14T21:13:12.494Z,8.60
2019-04-14T21:15:47.537Z,9.17
2019-04-14T21:18:35.521Z,9.00
2019-04-14T21:21:15.551Z,8.87
2019-04-14T21:24:01.960Z,9.37
2019-04-14T21:26:42.101Z,9.03
2019-04-14T21:29:17.867Z,9.57
2019-04-14T21:31:53.194Z,9.90
2019-04-14T21:34:31.819Z,9.27
2019-04-14T21:37:19.902Z,9.70
2019-04-14T21:39:53.752Z,9.13
2019-04-14T21:42:31.438Z,9.23
2019-04-14T21:45:00.492Z,9.67
2019-04-14T21:47:29.441Z,8.87
2019-04-14T21:49:58.763Z,9.80
2019-04-14T21:52:42.450Z,9.63
2019-04-14T21:55:13.722Z,8.33
2019-04-14T21:58:20.093Z,9.30
2019-04-14T22:01:37.599Z,7.97
2019-04-14T22:04:24.456Z,8.80
2019-04-14T22:06:54.367Z,8.00
2019-04-14T22:09:29.506Z,7.30
2019-04-14T22:11:59.823Z,7.13
2019-04-14T22:14:28.711Z,7.07
2019-04-14T22:16:57.590Z,8.10
2019-04-14T22:19:26.619Z,7.80
2019-04-14T22:21:55.554Z,7.17
2019-04-14T22:24:24.536Z,6.97
2019-04-14T22:26:53.585Z,7.73
2019-04-14T22:29:22.872Z,7.93
2019-04-14T22:31:52.719Z,7.20
2019-04-14T22:34:22.084Z,7.23
2019-04-14T22:36:51.033Z,8.07
2019-04-14T22:39:20.035Z,7.57
2019-04-14T22:41:49.045Z,7.57
2019-04-14T22:44:18.386Z,7.23
2019-04-14T22:46:47.432Z,7.53
2019-04-14T22:49:16.399Z,7.37
2019-04-14T22:51:45.417Z,7.30
2019-04-14T22:54:14.666Z,6.47
2019-04-14T22:56:43.617Z,6.50
2019-04-14T22:59:16.330Z,7.37
2019-04-14T23:01:48.400Z,6.97
2019-04-14T23:04:35.132Z,6.63
2019-04-14T23:07:13.840Z,6.23
2019-04-14T23:09:50.174Z,5.67
2019-04-14T23:12:33.287Z,5.90
2019-04-14T23:15:25.229Z,6.10
2019-04-14T23:18:08.538Z,5.83
2019-04-14T23:20:46.773Z,5.80
2019-04-14T23:23:31.135Z,5.73
2019-04-14T23:26:00.163Z,5.47
2019-04-14T23:28:29.127Z,6.07
2019-04-14T23:31:01.464Z,5.67
2019-04-14T23:33:29.477Z,5.90
2019-04-14T23:35:58.439Z,5.43
2019-04-14T23:38:27.340Z,5.70
2019-04-14T23:40:56.435Z,5.63
2019-04-14T23:43:25.474Z,5.50
2019-04-14T23:45:54.526Z,6.13
2019-04-14T23:48:23.523Z,5.53
2019-04-14T23:50:52.457Z,6.17
2019-04-14T23:53:21.471Z,4.73
2019-04-14T23:55:50.902Z,5.90
2019-04-14T23:58:19.924Z,5.10
